Time;durP1;ratioP1;P1;durP2;ratioP2;P2;SDS_P1;SDS_P2;PMS_P1;PMS_P2;Temp;Humidity;BMP_temperature;BMP_pressure;BME280_temperature;BME280_humidity;BME280_pressure;Samples;Min_cycle;Max_cycle;Signal;HPM_P1;HPM_P2
2024/01/02 00:11:22;;;;;;;;;;;;;;;4.84;100.00;99710.84;5032905;28;19931;-75
2024/01/02 00:17:21;;;;;;;;;;;;;;;4.85;100.00;99699.97;5037609;28;19932;-75
2024/01/02 00:20:18;;;;;;;;;;;;;;;4.86;100.00;99698.97;5166723;22;19925;-74
2024/01/02 00:22:44;;;;;;;;;;;;;;;4.84;100.00;99684.19;5027516;28;20020;-74
2024/01/02 00:25:09;;;;;;;;;;;;;;;4.82;100.00;99670.19;5032259;28;19968;-74
2024/01/02 00:27:34;;;;;;;;;;;;;;;4.83;100.00;99677.19;5032886;28;19917;-74
2024/01/02 00:29:59;;;;;;;;;;;;;;;4.83;100.00;99666.53;5033842;28;20411;-74
2024/01/02 00:32:25;;;;;;;;;;;;;;;4.77;100.00;99662.78;5032967;28;19924;-74
2024/01/02 00:34:51;;;;;;;;;;;;;;;4.85;100.00;99656.50;5032905;28;19931;-74
2024/01/02 00:39:50;;;;;;;;;;;;;;;4.84;100.00;99647.69;5020360;22;19932;-74
2024/01/02 00:42:18;;;;;;;;;;;;;;;4.82;100.00;99635.53;5012712;28;20056;-74
2024/01/02 00:45:02;;;;;;;;;;;;;;;4.83;100.00;99637.19;5004784;23;19930;-75
2024/01/02 00:47:35;;;;;;;;;;;;;;;4.85;100.00;99622.63;4980684;28;20004;-75
2024/01/02 00:50:00;;;;;;;;;;;;;;;4.81;100.00;99610.72;5012676;28;19989;-74
2024/01/02 00:52:43;;;;;;;;;;;;;;;4.83;100.00;99613.19;5003764;28;19925;-74
2024/01/02 00:55:08;;;;;;;;;;;;;;;4.92;100.00;99612.06;4961111;28;20258;-74
2024/01/02 00:57:40;;;;;;;;;;;;;;;4.87;100.00;99598.47;5012755;28;19972;-75
2024/01/02 01:00:06;;;;;;;;;;;;;;;4.80;100.00;99581.56;5012016;28;19956;-75
2024/01/02 01:02:31;;;;;;;;;;;;;;;4.82;100.00;99580.38;5013025;28;19925;-75
2024/01/02 01:04:59;;;;;;;;;;;;;;;4.82;100.00;99575.06;5012617;28;19926;-74
2024/01/02 01:07:24;;;;;;;;;;;;;;;4.85;100.00;99557.84;5014279;28;19940;-75
2024/01/02 01:09:49;;;;;;;;;;;;;;;4.78;100.00;99540.94;5015917;28;19925;-75
2024/01/02 01:12:15;;;;;;;;;;;;;;;4.72;100.00;99541.72;5017363;28;19968;-74
2024/01/02 01:14:40;;;;;;;;;;;;;;;4.78;100.00;99531.13;5018987;28;19921;-74
2024/01/02 01:17:06;;;;;;;;;;;;;;;4.68;100.00;99520.78;5023691;28;19909;-74
2024/01/02 01:19:31;;;;;;;;;;;;;;;4.66;100.00;99514.81;5036943;28;19917;-74
2024/01/02 01:21:57;;;;;;;;;;;;;;;4.69;100.00;99503.75;5029096;28;19926;-75
2024/01/02 01:24:22;;;;;;;;;;;;;;;4.73;100.00;99511.38;5017283;28;19925;-75
2024/01/02 01:26:52;;;;;;;;;;;;;;;4.75;100.00;99490.69;5016580;28;19934;-75
2024/01/02 01:29:18;;;;;;;;;;;;;;;4.68;100.00;99467.47;5016372;28;20016;-76
2024/01/02 01:31:43;;;;;;;;;;;;;;;4.64;100.00;99455.53;5015714;22;19930;-75
2024/01/02 01:34:08;;;;;;;;;;;;;;;4.73;100.00;99453.53;4997718;28;19971;-76
2024/01/02 01:36:33;;;;;;;;;;;;;;;4.75;100.00;99456.84;4996072;28;19929;-76
2024/01/02 02:37:35;;;;;;;;;;;;;;;4.92;100.00;99214.72;4993132;26;19933;-79
2024/01/02 02:49:35;;;;;;;;;;;;;;;4.90;100.00;99189.28;4952766;28;19922;-77
2024/01/02 02:52:01;;;;;;;;;;;;;;;4.93;100.00;99179.03;4959662;28;19918;-77
2024/01/02 02:54:27;;;;;;;;;;;;;;;4.88;100.00;99159.31;4972222;28;19960;-77
2024/01/02 02:57:05;;;;;;;;;;;;;;;4.90;100.00;99160.78;4958606;28;20411;-77
2024/01/02 02:59:30;;;;;;;;;;;;;;;4.88;100.00;99149.50;4953033;29;19960;-77
2024/01/02 03:01:56;;;;;;;;;;;;;;;4.89;100.00;99144.97;4951121;29;19928;-78
2024/01/02 03:04:21;;;;;;;;;;;;;;;4.92;100.00;99121.41;4953388;29;19914;-76
2024/01/02 03:06:46;;;;;;;;;;;;;;;4.92;100.00;99125.91;4970322;28;20394;-77
2024/01/02 03:09:11;;;;;;;;;;;;;;;4.89;100.00;99116.47;4994382;28;20417;-77
2024/01/02 03:11:37;;;;;;;;;;;;;;;4.92;100.00;99100.06;4993396;28;19969;-77
2024/01/02 03:14:02;;;;;;;;;;;;;;;4.91;100.00;99095.75;4993857;28;20620;-78
2024/01/02 03:16:27;;;;;;;;;;;;;;;4.91;100.00;99093.09;4993805;28;19938;-77
2024/01/02 03:18:53;;;;;;;;;;;;;;;4.91;100.00;99086.94;4993654;28;19924;-77
2024/01/02 03:21:18;;;;;;;;;;;;;;;4.94;100.00;99074.00;4993970;28;19917;-77
2024/01/02 03:23:43;;;;;;;;;;;;;;;4.98;100.00;99077.91;4994251;28;19925;-76
2024/01/02 03:26:10;;;;;;;;;;;;;;;4.96;100.00;99057.81;4994054;28;20366;-77
2024/01/02 03:28:35;;;;;;;;;;;;;;;4.99;100.00;99047.53;4994406;28;20030;-77
2024/01/02 03:31:03;;;;;;;;;;;;;;;4.99;100.00;99036.06;4995344;28;19925;-77
2024/01/02 03:33:28;;;;;;;;;;;;;;;5.10;100.00;99016.78;4993561;28;19977;-75
2024/01/02 03:35:53;;;;;;;;;;;;;;;5.12;100.00;99027.22;4993246;28;19925;-76
2024/01/02 03:38:18;;;;;;;;;;;;;;;5.06;100.00;99012.88;4997296;28;19926;-77
2024/01/02 03:40:44;;;;;;;;;;;;;;;5.07;100.00;99003.03;4997466;28;19945;-76
2024/01/02 03:43:09;;;;;;;;;;;;;;;5.07;100.00;98985.19;5006551;28;19926;-76
2024/01/02 03:45:34;;;;;;;;;;;;;;;5.06;100.00;98982.72;5016385;28;19949;-76
2024/01/02 03:48:02;;;;;;;;;;;;;;;5.06;100.00;98982.72;5004426;28;19962;-76
2024/01/02 03:50:27;;;;;;;;;;;;;;;5.03;100.00;98962.59;4999836;28;19967;-77
2024/01/02 03:52:52;;;;;;;;;;;;;;;5.06;100.00;98937.38;4995465;28;19965;-76
2024/01/02 03:55:18;;;;;;;;;;;;;;;5.09;100.00;98928.97;4994299;28;19972;-77
2024/01/02 03:57:43;;;;;;;;;;;;;;;5.11;100.00;98916.25;4992801;28;19936;-77
2024/01/02 04:00:08;;;;;;;;;;;;;;;5.07;100.00;98905.16;4995710;28;20480;-77
2024/01/02 04:02:33;;;;;;;;;;;;;;;5.10;100.00;98887.94;4993244;28;19922;-77
2024/01/02 04:05:01;;;;;;;;;;;;;;;5.16;100.00;98889.75;4992636;28;20374;-76
2024/01/02 04:07:27;;;;;;;;;;;;;;;5.16;100.00;98873.75;4993753;28;19922;-76
2024/01/02 04:09:52;;;;;;;;;;;;;;;5.17;100.00;98862.06;5006444;28;19948;-76
2024/01/02 04:12:17;;;;;;;;;;;;;;;5.15;100.00;98866.78;5014910;28;20030;-77
2024/01/02 04:14:45;;;;;;;;;;;;;;;5.13;100.00;98860.81;4997405;28;19926;-77
2024/01/02 04:17:10;;;;;;;;;;;;;;;5.10;100.00;98856.75;4994696;28;20412;-77
2024/01/02 04:19:36;;;;;;;;;;;;;;;5.11;100.00;98844.25;4994310;28;20016;-77
2024/01/02 04:22:01;;;;;;;;;;;;;;;5.11;100.00;98830.91;4993641;28;19968;-77
2024/01/02 04:24:26;;;;;;;;;;;;;;;5.09;100.00;98838.28;4992750;28;19991;-77
2024/01/02 04:26:52;;;;;;;;;;;;;;;5.08;100.00;98818.00;4993088;28;19973;-77
2024/01/02 04:29:17;;;;;;;;;;;;;;;5.06;100.00;98804.03;4994147;28;19932;-78
2024/01/02 04:31:45;;;;;;;;;;;;;;;5.03;100.00;98789.25;4992950;28;19918;-77
2024/01/02 04:34:10;;;;;;;;;;;;;;;4.99;100.00;98783.53;4994799;28;19918;-77
2024/01/02 04:36:36;;;;;;;;;;;;;;;4.98;100.00;98751.78;4976176;28;19922;-77
2024/01/02 04:39:03;;;;;;;;;;;;;;;5.01;100.00;98783.34;5002291;28;19922;-77
2024/01/02 04:41:28;;;;;;;;;;;;;;;5.07;100.00;98768.34;5015829;28;19909;-77
2024/01/02 04:43:53;;;;;;;;;;;;;;;5.06;100.00;98777.38;5001706;28;20017;-77
2024/01/02 04:46:18;;;;;;;;;;;;;;;5.08;100.00;98768.13;4998440;28;19953;-77
2024/01/02 04:48:46;;;;;;;;;;;;;;;5.08;100.00;98770.00;4998868;28;20374;-77
2024/01/02 04:51:12;;;;;;;;;;;;;;;5.13;100.00;98773.66;4998252;28;19917;-77
2024/01/02 04:53:37;;;;;;;;;;;;;;;5.16;100.00;98785.72;4997681;28;20012;-77
2024/01/02 04:56:02;;;;;;;;;;;;;;;5.19;100.00;98771.97;4998376;28;19933;-77
2024/01/02 04:58:27;;;;;;;;;;;;;;;5.20;100.00;98775.47;4999258;28;19922;-76
2024/01/02 05:00:53;;;;;;;;;;;;;;;5.25;100.00;98767.63;4998420;28;19917;-77
2024/01/02 05:03:18;;;;;;;;;;;;;;;5.21;100.00;98735.22;4999445;28;19922;-77
2024/01/02 05:05:43;;;;;;;;;;;;;;;5.23;100.00;98733.19;5002051;28;19969;-77
2024/01/02 05:08:11;;;;;;;;;;;;;;;5.25;100.00;98728.44;5007381;28;19921;-77
2024/01/02 05:10:36;;;;;;;;;;;;;;;5.25;100.00;98727.59;5017936;28;19913;-77
2024/01/02 05:13:02;;;;;;;;;;;;;;;5.32;100.00;98726.53;5008745;28;19926;-77
2024/01/02 05:15:27;;;;;;;;;;;;;;;5.34;100.00;98720.16;4999330;28;19922;-79
2024/01/02 05:17:52;;;;;;;;;;;;;;;5.35;100.00;98730.63;4998097;28;19921;-80
2024/01/02 05:20:17;;;;;;;;;;;;;;;5.38;100.00;98726.72;4997370;28;19928;-78
2024/01/02 05:22:46;;;;;;;;;;;;;;;5.39;100.00;98725.69;4997312;28;20012;-77
2024/01/02 05:25:11;;;;;;;;;;;;;;;5.40;100.00;98717.44;4996730;28;19975;-78
2024/01/02 05:27:36;;;;;;;;;;;;;;;5.37;100.00;98715.25;4995964;28;20392;-77
2024/01/02 05:30:03;;;;;;;;;;;;;;;5.42;100.00;98709.25;4996548;28;19929;-77
2024/01/02 05:32:28;;;;;;;;;;;;;;;5.47;100.00;98706.75;4995135;28;20386;-78
2024/01/02 05:34:54;;;;;;;;;;;;;;;5.48;100.00;98695.03;4994853;28;19929;-79
2024/01/02 05:37:19;;;;;;;;;;;;;;;5.46;100.00;98684.56;4996609;28;19928;-78
2024/01/02 05:39:44;;;;;;;;;;;;;;;5.47;100.00;98694.22;4995721;28;19926;-78
2024/01/02 05:42:09;;;;;;;;;;;;;;;5.47;100.00;98672.88;4995232;28;19929;-79
2024/01/02 05:44:34;;;;;;;;;;;;;;;5.50;100.00;98676.94;4996512;28;19918;-78
2024/01/02 05:47:00;;;;;;;;;;;;;;;5.49;100.00;98669.97;4995863;28;19918;-80
2024/01/02 05:49:25;;;;;;;;;;;;;;;5.59;100.00;98682.81;4995575;28;19937;-78
2024/01/02 05:51:50;;;;;;;;;;;;;;;5.61;100.00;98681.59;4996842;28;19918;-77
2024/01/02 05:54:15;;;;;;;;;;;;;;;5.63;100.00;98688.56;4995811;28;19924;-79
2024/01/02 05:56:41;;;;;;;;;;;;;;;5.65;100.00;98692.63;4994333;28;19918;-79
2024/01/02 05:59:06;;;;;;;;;;;;;;;5.68;100.00;98691.38;4996750;28;19929;-79
2024/01/02 06:01:31;;;;;;;;;;;;;;;5.67;100.00;98690.56;4995332;28;19918;-79
2024/01/02 06:03:56;;;;;;;;;;;;;;;5.72;100.00;98668.56;4994939;28;19924;-78
2024/01/02 06:06:21;;;;;;;;;;;;;;;5.71;100.00;98666.91;4996495;28;19922;-79
2024/01/02 06:08:47;;;;;;;;;;;;;;;5.80;100.00;98686.16;4995047;28;19928;-78
2024/01/02 06:11:12;;;;;;;;;;;;;;;5.85;100.00;98692.47;4993945;28;20375;-78
2024/01/02 06:13:37;;;;;;;;;;;;;;;5.90;100.00;98689.94;4996291;28;19980;-79
2024/01/02 06:16:02;;;;;;;;;;;;;;;5.94;100.00;98690.31;4995772;28;19997;-79
2024/01/02 06:18:28;;;;;;;;;;;;;;;5.98;100.00;98688.03;4994736;28;20365;-79
2024/01/02 06:20:54;;;;;;;;;;;;;;;6.02;100.00;98676.72;4996288;28;19918;-78
2024/01/02 06:23:19;;;;;;;;;;;;;;;6.07;100.00;98682.22;4977885;28;19922;-79
2024/01/02 06:25:44;;;;;;;;;;;;;;;6.11;100.00;98690.59;4997522;28;19926;-79
2024/01/02 07:41:09;;;;;;;;;;;;;;;8.09;100.00;98750.91;4955718;29;19991;-79
2024/01/02 07:43:34;;;;;;;;;;;;;;;8.13;100.00;98762.78;4956391;29;19926;-78
2024/01/02 07:46:01;;;;;;;;;;;;;;;8.28;100.00;98759.66;4966108;28;19926;-78
2024/01/02 07:48:26;;;;;;;;;;;;;;;8.32;100.00;98774.22;4993906;28;19943;-78
2024/01/02 07:50:54;;;;;;;;;;;;;;;8.34;100.00;98764.88;4994899;28;19918;-78
2024/01/02 07:53:26;;;;;;;;;;;;;;;8.42;100.00;98787.03;4994236;28;19977;-78
2024/01/02 07:55:54;;;;;;;;;;;;;;;8.44;100.00;98790.31;4994268;28;19926;-78
2024/01/02 07:58:23;;;;;;;;;;;;;;;8.52;100.00;98800.69;5015644;28;19928;-78
2024/01/02 08:00:53;;;;;;;;;;;;;;;8.55;100.00;98813.66;5002289;28;19926;-78
2024/01/02 08:03:30;;;;;;;;;;;;;;;8.52;100.00;98806.06;4976354;28;19926;-78
2024/01/02 08:05:55;;;;;;;;;;;;;;;8.57;100.00;98819.59;4978417;28;19922;-78
2024/01/02 08:08:23;;;;;;;;;;;;;;;8.58;100.00;98817.72;4974963;28;19918;-78
2024/01/02 08:10:58;;;;;;;;;;;;;;;8.59;100.00;98819.34;4974246;28;19918;-78
2024/01/02 08:13:23;;;;;;;;;;;;;;;8.68;100.00;98826.00;4977735;28;19957;-78
2024/01/02 08:15:57;;;;;;;;;;;;;;;8.68;100.00;98828.69;4976133;28;19933;-78
2024/01/02 08:18:30;;;;;;;;;;;;;;;8.80;100.00;98834.03;4976568;28;19925;-78
2024/01/02 08:21:01;;;;;;;;;;;;;;;8.80;100.00;98831.38;4978043;28;19929;-78
2024/01/02 08:23:33;;;;;;;;;;;;;;;8.80;100.00;98829.47;4978372;28;20024;-78
2024/01/02 08:25:58;;;;;;;;;;;;;;;8.87;100.00;98823.97;4985034;28;19902;-78
2024/01/02 08:28:23;;;;;;;;;;;;;;;8.89;100.00;98834.50;5005585;28;19922;-78
2024/01/02 08:30:54;;;;;;;;;;;;;;;8.93;100.00;98844.53;5007693;28;19932;-78
2024/01/02 08:33:20;;;;;;;;;;;;;;;8.93;100.00;98836.47;4996757;28;19918;-78
2024/01/02 08:35:45;;;;;;;;;;;;;;;8.90;100.00;98838.81;4996557;28;20322;-78
2024/01/02 08:38:10;;;;;;;;;;;;;;;9.00;100.00;98835.53;4993005;28;19928;-78
2024/01/02 08:40:36;;;;;;;;;;;;;;;8.98;100.00;98832.28;4993594;28;19918;-78
2024/01/02 08:43:01;;;;;;;;;;;;;;;8.94;100.00;98835.41;4987896;28;20010;-78
2024/01/02 08:45:27;;;;;;;;;;;;;;;9.02;100.00;98842.28;4974714;28;20405;-78
2024/01/02 08:47:55;;;;;;;;;;;;;;;9.01;100.00;98842.50;4973212;28;19925;-78
2024/01/02 08:50:20;;;;;;;;;;;;;;;8.99;100.00;98842.75;4974110;28;19919;-78
2024/01/02 08:52:48;;;;;;;;;;;;;;;9.14;100.00;98850.31;4972387;28;19918;-77
2024/01/02 08:55:13;;;;;;;;;;;;;;;9.09;100.00;98842.94;4972957;28;19968;-78
2024/01/02 08:57:38;;;;;;;;;;;;;;;9.10;100.00;98846.47;4974139;28;20321;-78
2024/01/02 09:00:07;;;;;;;;;;;;;;;9.11;100.00;98842.75;4972945;28;20785;-78
2024/01/02 09:02:32;;;;;;;;;;;;;;;9.15;100.00;98840.38;4973200;28;19918;-77
2024/01/02 09:05:00;;;;;;;;;;;;;;;9.27;100.00;98843.03;4974318;28;19919;-78
2024/01/02 09:07:25;;;;;;;;;;;;;;;9.26;100.00;98834.19;4971928;28;19928;-77
2024/01/02 09:09:50;;;;;;;;;;;;;;;9.28;100.00;98847.34;4973138;28;20016;-78
2024/01/02 09:12:16;;;;;;;;;;;;;;;9.25;100.00;98838.72;4974720;28;20000;-78
2024/01/02 09:14:41;;;;;;;;;;;;;;;9.27;100.00;98851.09;4972523;28;19922;-78
2024/01/02 09:17:06;;;;;;;;;;;;;;;9.29;100.00;98846.31;4975648;28;20374;-78
2024/01/02 09:19:32;;;;;;;;;;;;;;;9.45;100.00;98842.03;4974534;28;20428;-78
2024/01/02 09:21:57;;;;;;;;;;;;;;;9.43;100.00;98834.22;4973452;28;20374;-77
2024/01/02 09:24:25;;;;;;;;;;;;;;;9.52;100.00;98832.81;4972826;28;20394;-77
2024/01/02 09:26:51;;;;;;;;;;;;;;;9.52;100.00;98842.72;4973212;28;20013;-78
2024/01/02 09:29:17;;;;;;;;;;;;;;;9.60;100.00;98841.53;4973779;28;19919;-77
2024/01/02 09:31:43;;;;;;;;;;;;;;;9.51;100.00;98825.81;4973003;28;19921;-78
2024/01/02 09:34:08;;;;;;;;;;;;;;;9.62;100.00;98828.66;4977091;28;20363;-77
2024/01/02 09:36:34;;;;;;;;;;;;;;;9.55;100.00;98824.25;4981398;28;20310;-77
2024/01/02 09:39:01;;;;;;;;;;;;;;;9.71;100.00;98824.53;4995981;28;20007;-76
2024/01/02 14:49:36;;;;;;;;;;;;;;;8.31;100.00;98331.09;5030511;23;19933;-77
2024/01/02 15:04:51;;;;;;;;;;;;;;;8.44;100.00;98318.41;4984235;28;20013;-78
2024/01/02 15:07:35;;;;;;;;;;;;;;;8.44;100.00;98305.81;4994490;28;19926;-76
2024/01/02 15:15:43;;;;;;;;;;;;;;;8.55;100.00;98293.41;5297747;23;19934;-76
2024/01/02 15:18:23;;;;;;;;;;;;;;;8.57;100.00;98303.88;4980685;28;19925;-77
2024/01/02 15:20:56;;;;;;;;;;;;;;;8.55;100.00;98293.41;4977547;28;19950;-77
2024/01/02 15:23:55;;;;;;;;;;;;;;;8.55;100.00;98285.34;4994686;28;19906;-78
2024/01/02 15:44:10;;;;;;;;;;;;;;;8.58;100.00;98227.72;4975169;28;20031;-79
2024/01/02 15:56:25;;;;;;;;;;;;;;;8.57;100.00;98210.84;5176077;23;19960;-80
2024/01/02 16:02:30;;;;;;;;;;;;;;;8.58;100.00;98200.91;4955294;29;20381;-79
2024/01/02 16:08:21;;;;;;;;;;;;;;;8.62;100.00;98181.41;4952264;29;20041;-80
2024/01/02 16:14:25;;;;;;;;;;;;;;;8.60;100.00;98159.41;4941415;29;19930;-78
2024/01/02 16:29:29;;;;;;;;;;;;;;;8.53;100.00;98109.72;4991129;28;19921;-78
2024/01/02 16:32:17;;;;;;;;;;;;;;;8.52;100.00;98102.72;4984566;28;19928;-77
2024/01/02 16:38:12;;;;;;;;;;;;;;;8.48;100.00;98091.66;4950653;29;19924;-78
2024/01/02 16:40:47;;;;;;;;;;;;;;;8.51;100.00;98077.75;4952638;28;19934;-78
2024/01/02 16:43:31;;;;;;;;;;;;;;;8.48;100.00;98062.19;4945219;28;19922;-78
2024/01/02 16:50:59;;;;;;;;;;;;;;;8.48;100.00;98022.78;5020390;23;19934;-78
2024/01/02 16:53:31;;;;;;;;;;;;;;;8.47;100.00;98023.03;5201542;23;20190;-78
2024/01/02 16:56:13;;;;;;;;;;;;;;;8.46;100.00;98021.41;4992329;23;20024;-78
2024/01/02 16:58:55;;;;;;;;;;;;;;;8.44;100.00;98029.69;4985463;28;19976;-77
2024/01/02 17:03:56;;;;;;;;;;;;;;;8.38;100.00;98020.00;5082145;23;19929;-78
2024/01/02 17:06:40;;;;;;;;;;;;;;;8.39;100.00;98031.50;4995432;28;19960;-77
2024/01/02 17:09:23;;;;;;;;;;;;;;;8.39;100.00;98010.84;4997603;28;19933;-78
2024/01/02 17:11:58;;;;;;;;;;;;;;;8.40;100.00;98014.34;4996142;28;20082;-78
2024/01/02 17:14:27;;;;;;;;;;;;;;;8.35;100.00;98012.44;4995448;28;20377;-78
2024/01/02 17:16:52;;;;;;;;;;;;;;;8.37;100.00;97980.84;4968174;28;20325;-77
2024/01/02 17:19:17;;;;;;;;;;;;;;;8.41;100.00;97994.53;4996209;28;20369;-78
2024/01/02 17:21:42;;;;;;;;;;;;;;;8.42;100.00;97978.19;4978828;28;20478;-77
2024/01/02 17:24:08;;;;;;;;;;;;;;;8.44;100.00;97965.34;4997536;28;19929;-78
2024/01/02 17:26:33;;;;;;;;;;;;;;;8.44;100.00;97973.38;4995952;28;20396;-77
2024/01/02 17:28:58;;;;;;;;;;;;;;;8.46;100.00;97975.81;4978644;28;20373;-77
2024/01/02 17:31:25;;;;;;;;;;;;;;;8.47;100.00;97974.75;4980317;28;19928;-78
2024/01/02 17:33:50;;;;;;;;;;;;;;;8.51;100.00;97975.88;4995937;28;19922;-78
2024/01/02 17:36:18;;;;;;;;;;;;;;;8.49;100.00;97952.03;4996483;28;19973;-77
2024/01/02 17:38:44;;;;;;;;;;;;;;;8.53;100.00;97957.66;4996309;28;19929;-78
2024/01/02 17:41:09;;;;;;;;;;;;;;;8.55;100.00;97960.13;4995897;28;19980;-77
2024/01/02 17:43:34;;;;;;;;;;;;;;;8.56;100.00;97940.28;4995114;28;19926;-77
2024/01/02 17:46:01;;;;;;;;;;;;;;;8.54;100.00;97953.94;4971419;28;19922;-78
2024/01/02 17:48:30;;;;;;;;;;;;;;;8.58;100.00;97946.16;4985516;28;19921;-78
2024/01/02 17:50:55;;;;;;;;;;;;;;;8.59;100.00;97929.84;4996741;28;19970;-77
2024/01/02 17:53:30;;;;;;;;;;;;;;;8.60;100.00;97941.38;4995778;28;19918;-78
2024/01/02 17:55:57;;;;;;;;;;;;;;;8.63;100.00;97925.59;4994125;28;19958;-77
2024/01/02 17:58:26;;;;;;;;;;;;;;;8.65;100.00;97926.13;4996338;28;19965;-77
2024/01/02 18:00:52;;;;;;;;;;;;;;;8.69;100.00;97922.94;4995873;28;20008;-77
2024/01/02 18:03:52;;;;;;;;;;;;;;;8.69;100.00;97952.44;4978883;28;19922;-78
2024/01/02 18:12:56;;;;;;;;;;;;;;;8.83;100.00;97934.03;4979256;28;20405;-78
2024/01/02 18:15:56;;;;;;;;;;;;;;;8.85;100.00;97905.88;4995755;28;19928;-76
2024/01/02 18:18:27;;;;;;;;;;;;;;;8.86;100.00;97928.94;4997276;23;19926;-78
2024/01/02 18:20:59;;;;;;;;;;;;;;;8.96;100.00;97912.13;4976219;28;19973;-77
2024/01/02 18:23:29;;;;;;;;;;;;;;;9.04;100.00;97884.81;4979200;28;20306;-77
2024/01/02 18:26:25;;;;;;;;;;;;;;;9.13;100.00;97924.56;4976865;28;19922;-77
2024/01/02 18:29:07;;;;;;;;;;;;;;;9.23;100.00;97941.53;4956714;28;19922;-75
2024/01/02 18:31:38;;;;;;;;;;;;;;;9.25;100.00;97895.66;4961487;28;20385;-76
2024/01/02 18:34:22;;;;;;;;;;;;;;;9.29;100.00;97920.88;4974990;28;19926;-75
2024/01/02 18:37:07;;;;;;;;;;;;;;;9.33;100.00;97915.81;4999332;28;19963;-77
2024/01/02 18:39:54;;;;;;;;;;;;;;;9.35;100.00;97919.06;4999850;28;19964;-77
2024/01/02 18:42:39;;;;;;;;;;;;;;;9.35;100.00;97908.31;4990678;28;20386;-78
2024/01/02 18:45:39;;;;;;;;;;;;;;;9.37;100.00;97906.97;5003589;28;19925;-76
2024/01/02 18:48:17;;;;;;;;;;;;;;;9.45;100.00;97894.91;5010333;28;19937;-77
2024/01/02 18:51:01;;;;;;;;;;;;;;;9.51;100.00;97901.09;5011924;28;19926;-77
2024/01/02 18:53:41;;;;;;;;;;;;;;;9.54;100.00;97901.38;4995338;28;19925;-76
2024/01/02 18:56:19;;;;;;;;;;;;;;;9.55;100.00;97899.53;4988806;28;19933;-77
2024/01/02 18:58:46;;;;;;;;;;;;;;;9.56;100.00;97853.59;4973046;28;19996;-78
2024/01/02 19:01:14;;;;;;;;;;;;;;;9.54;100.00;97874.53;4995378;28;20297;-77
2024/01/02 19:04:12;;;;;;;;;;;;;;;9.54;100.00;97877.22;5007246;28;19926;-76
2024/01/02 19:06:56;;;;;;;;;;;;;;;9.63;100.00;97868.66;5006311;28;19917;-77
2024/01/02 19:09:37;;;;;;;;;;;;;;;9.61;100.00;97886.91;4983038;28;19922;-77
2024/01/02 19:12:25;;;;;;;;;;;;;;;9.64;100.00;97887.19;4991273;28;19933;-76
2024/01/02 19:14:52;;;;;;;;;;;;;;;9.53;100.00;97840.69;4988635;28;20289;-76
2024/01/02 19:17:28;;;;;;;;;;;;;;;9.38;100.00;97868.31;4999185;28;19930;-76
2024/01/02 19:19:54;;;;;;;;;;;;;;;9.27;100.00;97895.38;5015690;28;19909;-77
2024/01/02 19:22:19;;;;;;;;;;;;;;;9.28;100.00;97883.56;5001776;28;20251;-76
2024/01/02 19:24:45;;;;;;;;;;;;;;;9.25;100.00;97899.13;4995387;28;20603;-77
2024/01/02 19:27:16;;;;;;;;;;;;;;;9.32;100.00;97887.34;4993387;28;19930;-77
2024/01/02 19:29:43;;;;;;;;;;;;;;;9.35;100.00;97884.16;4991189;28;20366;-77
2024/01/02 19:32:11;;;;;;;;;;;;;;;9.37;100.00;97888.19;4993945;28;19972;-77
2024/01/02 19:34:51;;;;;;;;;;;;;;;9.39;100.00;97886.03;4995813;28;19936;-77
2024/01/02 19:37:22;;;;;;;;;;;;;;;9.42;100.00;97892.75;4999499;28;19968;-76
2024/01/02 19:39:53;;;;;;;;;;;;;;;9.49;100.00;97896.00;4993475;28;19937;-76
2024/01/02 19:42:21;;;;;;;;;;;;;;;9.50;100.00;97920.97;5005141;28;19953;-77
2024/01/02 19:44:46;;;;;;;;;;;;;;;9.37;100.00;97949.94;4998218;28;20009;-78
2024/01/02 19:47:17;;;;;;;;;;;;;;;9.30;100.00;97962.75;5001533;28;20337;-78
2024/01/02 19:49:47;;;;;;;;;;;;;;;9.27;100.00;97933.75;5011191;28;19918;-77
2024/01/02 19:52:13;;;;;;;;;;;;;;;9.41;100.00;97931.41;5008255;23;20406;-77
2024/01/02 19:54:39;;;;;;;;;;;;;;;9.48;100.00;97934.69;4996089;28;19926;-78
2024/01/02 19:57:04;;;;;;;;;;;;;;;9.39;100.00;97933.53;5015107;28;20705;-78
2024/01/02 19:59:29;;;;;;;;;;;;;;;9.38;100.00;97930.06;5002376;28;19988;-78
2024/01/02 20:01:55;;;;;;;;;;;;;;;9.42;100.00;97943.78;5003997;28;19921;-78
2024/01/02 20:04:23;;;;;;;;;;;;;;;9.47;100.00;97925.00;4983432;28;19944;-77
2024/01/02 20:06:52;;;;;;;;;;;;;;;9.56;100.00;97952.16;5013726;28;19918;-79
2024/01/02 20:09:20;;;;;;;;;;;;;;;9.55;100.00;97945.19;5014652;28;19967;-77
2024/01/02 20:11:48;;;;;;;;;;;;;;;9.53;100.00;97932.00;5013980;28;19944;-78
2024/01/02 20:14:46;;;;;;;;;;;;;;;9.55;100.00;97937.13;4996265;28;20309;-78
2024/01/02 20:17:12;;;;;;;;;;;;;;;9.62;100.00;97934.97;4992378;28;19932;-78
2024/01/02 20:19:37;;;;;;;;;;;;;;;9.61;100.00;97935.25;5016521;28;19905;-78
2024/01/02 20:22:03;;;;;;;;;;;;;;;9.44;100.00;97935.47;5020233;28;19928;-78
2024/01/02 20:24:29;;;;;;;;;;;;;;;9.22;100.00;97947.97;5013848;28;19921;-78
2024/01/02 20:26:58;;;;;;;;;;;;;;;9.15;100.00;97943.88;5015515;28;19945;-78
2024/01/02 20:29:23;;;;;;;;;;;;;;;9.12;100.00;97950.59;5009004;28;19921;-78
2024/01/02 20:31:48;;;;;;;;;;;;;;;9.16;100.00;97921.34;5013732;28;20270;-78
2024/01/02 20:34:27;;;;;;;;;;;;;;;9.17;100.00;97942.59;5016221;28;19922;-77
2024/01/02 20:36:53;;;;;;;;;;;;;;;9.21;100.00;97954.41;5012555;28;20293;-78
2024/01/02 20:39:19;;;;;;;;;;;;;;;9.39;100.00;97941.59;5013776;28;19925;-75
2024/01/02 20:41:45;;;;;;;;;;;;;;;9.50;100.00;97929.03;4993823;28;19921;-76
2024/01/02 20:44:10;;;;;;;;;;;;;;;9.59;99.81;97934.72;5001415;28;19918;-75
2024/01/02 20:46:37;;;;;;;;;;;;;;;9.66;99.11;97921.84;5012480;28;19921;-75
2024/01/02 20:49:14;;;;;;;;;;;;;;;9.60;98.15;97952.44;5011212;28;20631;-75
2024/01/02 20:51:40;;;;;;;;;;;;;;;9.55;97.70;97945.97;5002096;28;19921;-76
2024/01/02 20:54:09;;;;;;;;;;;;;;;9.65;95.92;97955.16;5012768;28;19932;-76
2024/01/02 20:56:43;;;;;;;;;;;;;;;9.64;94.38;97935.53;5003708;28;19921;-76
2024/01/02 20:59:08;;;;;;;;;;;;;;;9.75;92.72;97944.44;5083359;23;19962;-76
2024/01/02 21:01:34;;;;;;;;;;;;;;;9.67;93.78;97947.66;4973615;28;20255;-75
2024/01/02 21:03:59;;;;;;;;;;;;;;;9.70;92.48;97937.19;4972228;28;19932;-76
2024/01/02 21:06:34;;;;;;;;;;;;;;;9.70;91.34;97937.19;4973669;28;20355;-76
2024/01/02 21:08:59;;;;;;;;;;;;;;;9.75;92.08;97933.69;4973831;28;20020;-75
2024/01/02 21:11:26;;;;;;;;;;;;;;;9.68;93.03;97933.16;4954774;28;20065;-75
2024/01/02 21:13:52;;;;;;;;;;;;;;;9.70;92.56;97898.78;4972982;28;20440;-75
2024/01/02 21:16:18;;;;;;;;;;;;;;;9.72;91.02;97926.16;4972634;28;20016;-76
2024/01/02 21:18:43;;;;;;;;;;;;;;;9.79;90.18;97929.41;4954418;28;19937;-76
2024/01/02 21:21:21;;;;;;;;;;;;;;;9.78;89.02;97917.06;4979301;28;20008;-75
2024/01/02 21:23:46;;;;;;;;;;;;;;;9.84;88.46;97915.19;4973112;28;19922;-75
2024/01/02 21:26:13;;;;;;;;;;;;;;;9.88;88.82;97885.94;4972015;28;19926;-75
2024/01/02 21:28:44;;;;;;;;;;;;;;;9.89;87.98;97909.00;4982250;23;20394;-75
2024/01/02 21:31:20;;;;;;;;;;;;;;;9.91;88.44;97902.31;4975691;28;19960;-74
2024/01/02 21:34:02;;;;;;;;;;;;;;;9.94;86.72;97907.16;4958326;28;20388;-74
2024/01/02 21:36:43;;;;;;;;;;;;;;;9.93;87.04;97928.91;4976484;28;19922;-74
2024/01/02 21:39:21;;;;;;;;;;;;;;;9.94;85.17;97898.28;4975602;28;19918;-75
2024/01/02 21:41:46;;;;;;;;;;;;;;;9.91;84.46;97928.34;4974033;28;20020;-74
2024/01/02 21:44:19;;;;;;;;;;;;;;;9.97;84.15;97911.19;4962582;28;20045;-74
2024/01/02 21:46:44;;;;;;;;;;;;;;;9.97;84.05;97919.25;4975553;28;19926;-75
2024/01/02 21:49:16;;;;;;;;;;;;;;;10.00;84.07;97895.31;4957340;28;19917;-75
2024/01/02 21:51:42;;;;;;;;;;;;;;;10.05;82.97;97913.38;4975043;28;19922;-75
2024/01/02 21:54:11;;;;;;;;;;;;;;;10.07;83.04;97913.09;4957341;28;19929;-74
2024/01/02 21:56:37;;;;;;;;;;;;;;;9.99;83.63;97943.97;4959172;28;19930;-75
2024/01/02 21:59:24;;;;;;;;;;;;;;;9.96;84.36;97929.19;4976614;28;19945;-75
2024/01/02 22:01:49;;;;;;;;;;;;;;;9.99;84.45;97903.66;4975243;28;19929;-75
2024/01/02 22:04:14;;;;;;;;;;;;;;;9.99;84.52;97912.53;4975648;28;20289;-76
2024/01/02 22:06:42;;;;;;;;;;;;;;;9.97;85.56;97930.00;4958399;28;20267;-75
2024/01/02 22:09:19;;;;;;;;;;;;;;;9.98;85.04;97939.69;4976381;28;19918;-75